Mid Florida, FL (32799)

8:06 PM EST on February 07, 2016 (GMT -0500)
Maitland Tire Co. | | Change Station
CLOSE
Current Station
Personal Weather Station
Location: Maitland, FL
Elevation: 79 ft
Nearby Weather Stations

Elev 79 ft 28.63 °N, 81.36 °W | Updated 4 seconds ago

Clear
Clear
49.1 °F
Feels Like 49 °F
N
0.7
Wind Variable Wind from NW
Gusts 2.2 mph

Today
High -- | Low -- °F
--% Chance of Precip.
Yesterday
High -- | Low -- °F
Precip. -- in
Pressure 30.06 in
Visibility 10.0 miles
Clouds Clear
Windchill 49 °F
Dew Point 38 °F
Humidity 64%
Rainfall 0.00 in
Snow Depth Not available.
7:10 AM 6:09 PM
Waning Crescent, 0% visible
METAR KORL 080053Z 29005KT 10SM CLR 11/M01 A3005 RMK AO2 SLP179 T01061006
Pressure 30.06 in
Visibility 10.0 miles
Clouds Clear
Windchill 49 °F
Dew Point 38 °F
Humidity 64%
Rainfall 0.00 in
Snow Depth Not available.
7:10 AM 6:09 PM
Waning Crescent, 0% visible
METAR KORL 080053Z 29005KT 10SM CLR 11/M01 A3005 RMK AO2 SLP179 T01061006

10-Day Weather Forecast

Almanac

Astronomy

Feb. 07, 2016 Rise Set
Actual Time
Civil Twilight
Nautical Twilight
Astronomical Twilight
Moon
Length of Visible Light
Length of Day
Tomorrow will be .
, % of the Moon is Illuminated

Today's Extremes

State Highs State Lows

Community

WunderPhotos

Upload Photos

1,891,340 photos uploaded!

WunderBlog® & News

Nearby

Air Quality

  Air Quality AQ Index Pollutant
Not available.

Snow Depth

Station Depth Elevation

Earthquake Activity

City Distance Mag. Time & Date
Minimum magnitude displayed is 2.5.

Coastal Water Temperatures

Place Temperature

Stations

Nearby Weather Stations

Station Location Temp. Windchill Dew Point Humidity Wind Precip. Elev Updated Type
                   

Watches & Warnings

There are currently no watches in effect.